Wetterstation Vordersexau
Wetterdaten: Woche 28.11.11 - 04.12.11 (KW48)
Datum Zeit Temp. A. Feuchte A. Luftdruck Regen Wind Richtung Taupunkt Windchill Windben
28.11.2011 00:00 5,9 C 86 % 1027,1 hPa 0,0 l/m 0,0 km/h O-NO 3,7 C 5,9 C 0,0 km/h
28.11.2011 01:00 5,9 C 86 % 1027,2 hPa 0,0 l/m 0,0 km/h N-NO 3,7 C 5,9 C 0,0 km/h
28.11.2011 02:00 4,6 C 86 % 1027,2 hPa 0,0 l/m 0,0 km/h NO 2,5 C 4,6 C 0,0 km/h
28.11.2011 03:00 3,3 C 87 % 1026,9 hPa 0,0 l/m 0,0 km/h O-NO 1,3 C 3,3 C 0,0 km/h
28.11.2011 04:00 1,9 C 87 % 1026,7 hPa 0,0 l/m 0,0 km/h O-NO -0,0 C 1,9 C 0,0 km/h
28.11.2011 05:00 0,9 C 87 % 1026,9 hPa 0,0 l/m 0,0 km/h O-NO -1,0 C 0,9 C 0,0 km/h
28.11.2011 06:00 0,7 C 86 % 1026,5 hPa 0,0 l/m 0,0 km/h NO -1,4 C 0,7 C 0,0 km/h
28.11.2011 07:00 0,3 C 86 % 1026,5 hPa 0,0 l/m 0,0 km/h O-NO -1,8 C 0,3 C 0,0 km/h
28.11.2011 08:00 0,4 C 85 % 1026,4 hPa 0,0 l/m 0,0 km/h SO -1,8 C 0,4 C 0,0 km/h
28.11.2011 09:00 5,3 C 81 % 1026,0 hPa 0,0 l/m 5,8 km/h N-NW 2,3 C 5,3 C 3,2 km/h
28.11.2011 10:00 5,4 C 86 % 1025,8 hPa 0,0 l/m 0,0 km/h W-NW 3,3 C 5,4 C 0,0 km/h
28.11.2011 11:00 10,1 C 77 % 1024,9 hPa 0,0 l/m 0,0 km/h W-SW 6,3 C 10,1 C 0,0 km/h
28.11.2011 12:00 10,1 C 76 % 1024,1 hPa 0,0 l/m 9,1 km/h W 6,1 C 8,2 C 5,0 km/h
28.11.2011 13:00 11,2 C 74 % 1023,1 hPa 0,0 l/m 0,0 km/h W-SW 6,7 C 11,2 C 0,0 km/h
28.11.2011 14:00 10,5 C 75 % 1022,4 hPa 0,0 l/m 0,0 km/h SO 6,3 C 10,5 C 0,0 km/h
28.11.2011 15:00 13,0 C 69 % 1022,3 hPa 0,0 l/m 0,0 km/h SO 7,4 C 13,0 C 0,0 km/h
28.11.2011 16:00 7,6 C 77 % 1022,7 hPa 0,0 l/m 0,0 km/h O-NO 3,8 C 7,6 C 0,0 km/h
28.11.2011 17:00 3,8 C 85 % 1023,0 hPa 0,0 l/m 0,0 km/h O-NO 1,5 C 3,8 C 0,0 km/h
28.11.2011 18:00 2,5 C 86 % 1022,9 hPa 0,0 l/m 0,0 km/h O-NO 0,4 C 2,5 C 0,0 km/h
28.11.2011 19:00 1,6 C 86 % 1023,1 hPa 0,0 l/m 0,0 km/h O-NO -0,5 C 1,6 C 0,0 km/h
28.11.2011 20:00 0,9 C 86 % 1023,2 hPa 0,0 l/m 0,0 km/h O-NO -1,2 C 0,9 C 0,0 km/h
28.11.2011 21:00 0,4 C 87 % 1022,8 hPa 0,0 l/m 0,0 km/h O-SO -1,5 C 0,4 C 0,0 km/h
28.11.2011 22:00 0,2 C 86 % 1022,6 hPa 0,0 l/m 0,0 km/h O-NO -1,9 C 0,2 C 0,0 km/h
28.11.2011 23:00 -0,4 C 86 % 1022,3 hPa 0,0 l/m 0,0 km/h SO -2,4 C -0,4 C 0,0 km/h
29.11.2011 00:00 0,1 C 86 % 1021,9 hPa 0,0 l/m 0,0 km/h O-NO -2,0 C 0,1 C 0,0 km/h
29.11.2011 01:00 -0,8 C 86 % 1021,5 hPa 0,0 l/m 0,0 km/h N-NO -2,8 C -0,8 C 0,0 km/h
29.11.2011 02:00 -1,1 C 85 % 1021,5 hPa 0,4 l/m 0,0 km/h N-NO -3,3 C -1,1 C 0,0 km/h
29.11.2011 03:00 -1,3 C 85 % 1021,5 hPa 0,0 l/m 0,0 km/h N-NO -3,5 C -1,3 C 0,0 km/h
29.11.2011 04:00 -0,7 C 85 % 1020,8 hPa 0,0 l/m 0,0 km/h N-NO -2,9 C -0,7 C 0,0 km/h
29.11.2011 05:00 -0,9 C 85 % 1020,8 hPa 0,0 l/m 0,0 km/h N-NO -3,1 C -0,9 C 0,0 km/h
29.11.2011 06:00 -1,8 C 85 % 1021,0 hPa 0,0 l/m 0,0 km/h N-NO -4,0 C -1,8 C 0,0 km/h
29.11.2011 07:00 -1,6 C 85 % 1020,5 hPa 0,0 l/m 0,0 km/h N-NO -3,8 C -1,6 C 0,0 km/h
29.11.2011 08:00 -0,8 C 84 % 1020,5 hPa 0,0 l/m 0,0 km/h N-NO -3,2 C -0,8 C 0,0 km/h
29.11.2011 09:00 0,1 C 83 % 1020,4 hPa 0,0 l/m 0,0 km/h SW -2,4 C 0,1 C 0,0 km/h
29.11.2011 10:00 2,6 C 80 % 1020,2 hPa 0,0 l/m 0,0 km/h NW -0,5 C 2,6 C 0,0 km/h
29.11.2011 11:00 4,8 C 80 % 1019,7 hPa 0,0 l/m 0,0 km/h NW 1,6 C 4,8 C 0,0 km/h
29.11.2011 12:00 7,3 C 83 % 1019,2 hPa 0,0 l/m 0,0 km/h W-SW 4,6 C 7,3 C 0,0 km/h
29.11.2011 13:00 10,3 C 77 % 1018,1 hPa 0,0 l/m 0,0 km/h N 6,4 C 10,3 C 0,0 km/h
29.11.2011 14:00 14,6 C 67 % 1017,6 hPa 0,0 l/m 0,0 km/h S-SO 8,5 C 14,6 C 0,0 km/h
29.11.2011 15:00 18,2 C 57 % 1017,7 hPa 0,0 l/m 0,0 km/h SO 9,5 C 18,2 C 0,0 km/h
29.11.2011 16:00 12,9 C 62 % 1017,8 hPa 0,0 l/m 14,9 km/h NO 5,8 C 8,7 C 8,3 km/h
29.11.2011 17:00 6,8 C 79 % 1018,5 hPa 0,0 l/m 0,6 km/h NO 3,4 C 6,8 C 0,4 km/h
29.11.2011 18:00 6,0 C 84 % 1018,7 hPa 0,0 l/m 3,2 km/h NO 3,5 C 6,0 C 1,8 km/h
29.11.2011 19:00 4,8 C 85 % 1019,4 hPa 0,0 l/m 10,4 km/h NO 2,5 C 1,6 C 5,8 km/h
29.11.2011 20:00 4,9 C 86 % 1019,8 hPa 0,0 l/m 1,9 km/h NO 2,8 C 4,9 C 1,1 km/h
29.11.2011 21:00 5,6 C 86 % 1020,2 hPa 0,0 l/m 0,6 km/h W 3,4 C 5,6 C 0,4 km/h
29.11.2011 22:00 8,1 C 83 % 1020,3 hPa 0,0 l/m 0,0 km/h W-NW 5,4 C 8,1 C 0,0 km/h
29.11.2011 23:00 7,9 C 83 % 1020,5 hPa 0,0 l/m 0,0 km/h N-NO 5,2 C 7,9 C 0,0 km/h
30.11.2011 00:00 5,9 C 83 % 1021,1 hPa 0,0 l/m 0,0 km/h N-NO 3,2 C 5,9 C 0,0 km/h
30.11.2011 01:00 8,1 C 83 % 1021,4 hPa 0,0 l/m 0,0 km/h SW 5,4 C 8,1 C 0,0 km/h
30.11.2011 02:00 10,2 C 78 % 1021,8 hPa 0,0 l/m 8,4 km/h SW 6,5 C 8,8 C 4,7 km/h
30.11.2011 03:00 10,5 C 79 % 1022,1 hPa 0,0 l/m 3,2 km/h W-SW 7,0 C 10,5 C 1,8 km/h
30.11.2011 04:00 11,8 C 76 % 1022,2 hPa 0,0 l/m 13,6 km/h SW 7,7 C 7,9 C 7,6 km/h
30.11.2011 05:00 11,6 C 76 % 1022,6 hPa 0,0 l/m 10,4 km/h W-SW 7,5 C 9,1 C 5,8 km/h
30.11.2011 06:00 11,5 C 76 % 1023,5 hPa 0,0 l/m 22,7 km/h W 7,4 C 4,5 C 12,6 km/h
30.11.2011 07:00 11,1 C 79 % 1024,0 hPa 0,0 l/m 18,8 km/h W 7,6 C 5,1 C 10,4 km/h
30.11.2011 08:00 10,2 C 83 % 1024,9 hPa 0,0 l/m 14,9 km/h N-NW 7,4 C 5,4 C 8,3 km/h
30.11.2011 09:00 10,1 C 84 % 1025,8 hPa 0,0 l/m 0,0 km/h N 7,5 C 10,1 C 0,0 km/h
30.11.2011 10:00 10,2 C 85 % 1026,4 hPa 0,0 l/m 0,0 km/h N-NW 7,8 C 10,2 C 0,0 km/h
30.11.2011 11:00 11,4 C 84 % 1026,4 hPa 0,0 l/m 0,0 km/h NW 8,8 C 11,4 C 0,0 km/h
30.11.2011 12:00 12,4 C 81 % 1026,2 hPa 0,0 l/m 0,0 km/h N-NW 9,2 C 12,4 C 0,0 km/h
30.11.2011 13:00 11,9 C 82 % 1026,2 hPa 0,0 l/m 0,0 km/h N-NO 8,9 C 11,9 C 0,0 km/h
30.11.2011 14:00 12,2 C 80 % 1025,7 hPa 0,0 l/m 0,0 km/h SO 8,9 C 12,2 C 0,0 km/h
30.11.2011 15:00 11,1 C 82 % 1025,8 hPa 0,0 l/m 7,8 km/h O-SO 8,1 C 10,1 C 4,3 km/h
30.11.2011 16:00 9,3 C 84 % 1025,9 hPa 0,0 l/m 0,0 km/h SO 6,7 C 9,3 C 0,0 km/h
30.11.2011 17:00 7,6 C 85 % 1025,6 hPa 0,0 l/m 0,0 km/h SO 5,2 C 7,6 C 0,0 km/h
30.11.2011 18:00 6,1 C 86 % 1025,2 hPa 0,0 l/m 13,6 km/h O-NO 3,9 C 1,1 C 7,6 km/h
30.11.2011 19:00 5,3 C 86 % 1025,2 hPa 0,0 l/m 0,0 km/h O-NO 3,2 C 5,3 C 0,0 km/h
30.11.2011 20:00 4,2 C 85 % 1025,1 hPa 0,0 l/m 0,0 km/h NO 1,9 C 4,2 C 0,0 km/h
30.11.2011 21:00 3,2 C 85 % 1024,9 hPa 0,0 l/m 0,0 km/h NO 0,9 C 3,2 C 0,0 km/h
30.11.2011 22:00 2,6 C 85 % 1024,4 hPa 0,0 l/m 0,0 km/h NO 0,3 C 2,6 C 0,0 km/h
30.11.2011 23:00 1,6 C 85 % 1023,6 hPa 0,0 l/m 0,0 km/h NO -0,6 C 1,6 C 0,0 km/h
01.12.2011 00:00 1,0 C 85 % 1023,5 hPa 0,0 l/m 0,0 km/h O -1,2 C 1,0 C 0,0 km/h
01.12.2011 01:00 1,3 C 84 % 1022,9 hPa 0,0 l/m 0,0 km/h O-NO -1,1 C 1,3 C 0,0 km/h
01.12.2011 02:00 1,3 C 84 % 1022,5 hPa 0,0 l/m 0,0 km/h O-NO -1,1 C 1,3 C 0,0 km/h
01.12.2011 03:00 1,4 C 84 % 1021,5 hPa 0,0 l/m 0,0 km/h NO -1,0 C 1,4 C 0,0 km/h
01.12.2011 04:00 1,9 C 83 % 1021,0 hPa 0,0 l/m 0,0 km/h O -0,7 C 1,9 C 0,0 km/h
01.12.2011 05:00 3,1 C 82 % 1021,0 hPa 0,0 l/m 0,0 km/h NO 0,3 C 3,1 C 0,0 km/h
01.12.2011 06:00 2,8 C 81 % 1020,3 hPa 0,0 l/m 0,0 km/h NO -0,1 C 2,8 C 0,0 km/h
01.12.2011 07:00 3,3 C 80 % 1020,1 hPa 0,0 l/m 0,0 km/h SO 0,2 C 3,3 C 0,0 km/h
01.12.2011 08:00 3,8 C 79 % 1020,3 hPa 0,0 l/m 0,0 km/h O-NO 0,5 C 3,8 C 0,0 km/h
01.12.2011 09:00 8,4 C 69 % 1020,8 hPa 0,0 l/m 0,0 km/h SO 3,0 C 8,4 C 0,0 km/h
01.12.2011 10:00 12,5 C 84 % 1020,1 hPa 0,0 l/m 0,0 km/h O-NO 9,9 C 12,5 C 0,0 km/h
01.12.2011 11:00 15,6 C 66 % 1019,6 hPa 0,0 l/m 0,0 km/h W 9,3 C 15,6 C 0,0 km/h
01.12.2011 12:00 18,7 C 55 % 1018,8 hPa 0,0 l/m 1,9 km/h W-SW 9,5 C 18,7 C 1,1 km/h
01.12.2011 13:00 17,3 C 53 % 1017,9 hPa 0,0 l/m 16,2 km/h S 7,6 C 13,6 C 9,0 km/h
01.12.2011 14:00 15,3 C 52 % 1017,0 hPa 0,0 l/m 22,7 km/h S 5,5 C 9,5 C 12,6 km/h
01.12.2011 15:00 14,1 C 56 % 1016,6 hPa 0,0 l/m 0,0 km/h S-SW 5,5 C 14,1 C 0,0 km/h
01.12.2011 16:00 13,4 C 59 % 1016,2 hPa 0,0 l/m 0,0 km/h NO 5,6 C 13,4 C 0,0 km/h
01.12.2011 17:00 10,9 C 66 % 1016,1 hPa 0,0 l/m 0,0 km/h S-SO 4,8 C 10,9 C 0,0 km/h
01.12.2011 18:00 9,3 C 70 % 1015,8 hPa 0,0 l/m 7,8 km/h NO 4,1 C 8,3 C 4,3 km/h
01.12.2011 19:00 8,4 C 72 % 1015,5 hPa 0,0 l/m 0,0 km/h NO 3,7 C 8,4 C 0,0 km/h
01.12.2011 20:00 8,9 C 75 % 1014,7 hPa 0,0 l/m 0,0 km/h NO 4,7 C 8,9 C 0,0 km/h
01.12.2011 21:00 7,9 C 77 % 1014,5 hPa 0,0 l/m 7,1 km/h S-SO 4,1 C 7,3 C 4,0 km/h
01.12.2011 22:00 9,9 C 71 % 1013,8 hPa 0,0 l/m 7,8 km/h S 4,9 C 8,9 C 4,3 km/h
01.12.2011 23:00 10,4 C 67 % 1013,4 hPa 0,0 l/m 8,4 km/h SO 4,5 C 9,0 C 4,7 km/h
02.12.2011 00:00 6,9 C 75 % 1012,7 hPa 0,0 l/m 0,0 km/h SO 2,8 C 6,9 C 0,0 km/h
02.12.2011 01:00 7,9 C 77 % 1012,2 hPa 0,0 l/m 9,7 km/h SO 4,1 C 5,5 C 5,4 km/h
02.12.2011 02:00 6,7 C 77 % 1011,9 hPa 0,0 l/m 0,0 km/h NO 3,0 C 6,7 C 0,0 km/h
02.12.2011 03:00 5,0 C 82 % 1011,3 hPa 0,0 l/m 0,0 km/h O-SO 2,2 C 5,0 C 0,0 km/h
02.12.2011 04:00 5,5 C 83 % 1011,1 hPa 0,0 l/m 0,0 km/h SO 2,8 C 5,5 C 0,0 km/h
02.12.2011 05:00 5,6 C 83 % 1010,8 hPa 0,0 l/m 3,2 km/h NO 2,9 C 5,6 C 1,8 km/h
02.12.2011 06:00 4,5 C 84 % 1010,6 hPa 0,0 l/m 0,0 km/h SO 2,0 C 4,5 C 0,0 km/h
02.12.2011 07:00 4,9 C 85 % 1010,8 hPa 0,0 l/m 0,0 km/h S 2,6 C 4,9 C 0,0 km/h
02.12.2011 08:00 8,8 C 82 % 1010,9 hPa 0,0 l/m 5,2 km/h SW 5,9 C 8,8 C 2,9 km/h
02.12.2011 09:00 12,9 C 66 % 1011,4 hPa 0,0 l/m 20,7 km/h S-SW 6,7 C 6,8 C 11,5 km/h
02.12.2011 10:00 13,6 C 68 % 1011,9 hPa 0,0 l/m 20,1 km/h W-SW 7,8 C 7,9 C 11,2 km/h
02.12.2011 11:00 12,9 C 73 % 1012,4 hPa 0,0 l/m 12,3 km/h W-SW 8,2 C 9,7 C 6,8 km/h
02.12.2011 12:00 11,0 C 81 % 1012,5 hPa 0,0 l/m 6,5 km/h S-SW 7,9 C 11,0 C 3,6 km/h
02.12.2011 13:00 11,3 C 80 % 1012,3 hPa 0,0 l/m 0,0 km/h W 8,0 C 11,3 C 0,0 km/h
02.12.2011 14:00 11,0 C 79 % 1012,8 hPa 0,0 l/m 25,3 km/h W 7,5 C 3,1 C 14,0 km/h
02.12.2011 15:00 10,5 C 78 % 1012,8 hPa 0,0 l/m 7,8 km/h W-SW 6,8 C 9,5 C 4,3 km/h
02.12.2011 16:00 9,6 C 83 % 1013,4 hPa 0,4 l/m 20,7 km/h W 6,9 C 2,5 C 11,5 km/h
02.12.2011 17:00 8,8 C 84 % 1014,1 hPa 0,0 l/m 0,0 km/h NW 6,2 C 8,8 C 0,0 km/h
02.12.2011 18:00 8,3 C 85 % 1014,8 hPa 0,7 l/m 0,0 km/h N-NW 5,9 C 8,3 C 0,0 km/h
02.12.2011 19:00 8,1 C 85 % 1015,4 hPa 0,7 l/m 0,0 km/h NW 5,7 C 8,1 C 0,0 km/h
02.12.2011 20:00 7,8 C 84 % 1015,6 hPa 0,7 l/m 0,0 km/h SO 5,3 C 7,8 C 0,0 km/h
02.12.2011 21:00 7,2 C 84 % 1016,2 hPa 0,4 l/m 1,9 km/h SO 4,7 C 7,2 C 1,1 km/h
02.12.2011 22:00 6,9 C 84 % 1017,0 hPa 0,4 l/m 0,0 km/h SO 4,4 C 6,9 C 0,0 km/h
02.12.2011 23:00 6,6 C 83 % 1016,7 hPa 0,4 l/m 0,0 km/h O-NO 3,9 C 6,6 C 0,0 km/h
03.12.2011 00:00 6,7 C 83 % 1016,8 hPa 0,0 l/m 0,0 km/h O-NO 4,0 C 6,7 C 0,0 km/h
03.12.2011 01:00 6,8 C 82 % 1016,6 hPa 0,0 l/m 0,0 km/h W-SW 3,9 C 6,8 C 0,0 km/h
03.12.2011 02:00 7,6 C 83 % 1016,8 hPa 0,0 l/m 9,7 km/h W-SW 4,9 C 5,1 C 5,4 km/h
03.12.2011 03:00 5,9 C 87 % 1016,7 hPa 0,0 l/m 22,7 km/h SW 3,9 C -3,0 C 12,6 km/h
03.12.2011 04:00 4,8 C 86 % 1016,7 hPa 0,0 l/m 5,2 km/h NO 2,7 C 4,8 C 2,9 km/h
03.12.2011 05:00 3,3 C 87 % 1016,6 hPa 0,0 l/m 0,0 km/h NO 1,3 C 3,3 C 0,0 km/h
03.12.2011 06:00 3,4 C 86 % 1016,6 hPa 0,0 l/m 0,0 km/h S-SW 1,3 C 3,4 C 0,0 km/h
03.12.2011 07:00 5,3 C 86 % 1016,1 hPa 0,0 l/m 12,3 km/h W-SW 3,2 C 0,9 C 6,8 km/h
03.12.2011 08:00 6,6 C 84 % 1016,2 hPa 0,0 l/m 20,7 km/h SW 4,1 C -1,4 C 11,5 km/h
03.12.2011 09:00 7,2 C 82 % 1015,7 hPa 0,0 l/m 27,9 km/h SW 4,3 C -2,8 C 15,5 km/h
03.12.2011 10:00 7,6 C 81 % 1015,8 hPa 0,0 l/m 23,3 km/h SW 4,6 C -0,9 C 13,0 km/h
03.12.2011 11:00 7,9 C 80 % 1014,9 hPa 0,0 l/m 20,1 km/h W 4,7 C 0,5 C 11,2 km/h
03.12.2011 12:00 8,1 C 76 % 1014,0 hPa 0,0 l/m 35,6 km/h W-SW 4,1 C -3,2 C 19,8 km/h
03.12.2011 13:00 8,1 C 73 % 1013,3 hPa 0,0 l/m 44,7 km/h S-SW 3,6 C -4,6 C 24,8 km/h
03.12.2011 14:00 7,9 C 74 % 1012,5 hPa 0,0 l/m 35,0 km/h W-SW 3,6 C -3,3 C 19,4 km/h
03.12.2011 15:00 7,9 C 75 % 1011,9 hPa 0,0 l/m 32,4 km/h W-SW 3,7 C -2,8 C 18,0 km/h
03.12.2011 16:00 7,0 C 81 % 1011,7 hPa 0,0 l/m 42,8 km/h W-SW 4,0 C -6,0 C 23,8 km/h
03.12.2011 17:00 7,9 C 78 % 1011,6 hPa 0,0 l/m 35,6 km/h W-SW 4,3 C -3,5 C 19,8 km/h
03.12.2011 18:00 8,3 C 76 % 1011,2 hPa 0,0 l/m 31,1 km/h S-SW 4,3 C -2,0 C 17,3 km/h
03.12.2011 19:00 8,5 C 77 % 1010,9 hPa 0,0 l/m 46,0 km/h W-SW 4,7 C -4,2 C 25,6 km/h
03.12.2011 20:00 8,6 C 78 % 1010,4 hPa 0,0 l/m 22,0 km/h S 5,0 C 0,8 C 12,2 km/h
03.12.2011 21:00 8,8 C 79 % 1010,3 hPa 0,0 l/m 22,7 km/h W-SW 5,4 C 0,9 C 12,6 km/h
03.12.2011 22:00 9,1 C 79 % 1010,3 hPa 0,0 l/m 35,6 km/h SW 5,7 C -1,7 C 19,8 km/h
03.12.2011 23:00 9,1 C 81 % 1010,4 hPa 0,0 l/m 34,3 km/h W-SW 6,0 C -1,5 C 19,1 km/h
04.12.2011 00:00 9,1 C 82 % 1010,1 hPa 0,0 l/m 33,7 km/h W-SW 6,2 C -1,4 C 18,7 km/h
04.12.2011 01:00 9,1 C 84 % 1009,4 hPa 0,0 l/m 40,2 km/h SW 6,5 C -2,5 C 22,3 km/h
04.12.2011 02:00 9,4 C 83 % 1009,0 hPa 0,0 l/m 18,1 km/h SW 6,7 C 3,2 C 10,1 km/h
04.12.2011 03:00 9,5 C 83 % 1008,7 hPa 0,0 l/m 37,6 km/h W-NW 6,8 C -1,5 C 20,9 km/h
04.12.2011 04:00 9,4 C 84 % 1008,5 hPa 0,0 l/m 25,3 km/h SW 6,8 C 0,9 C 14,0 km/h
04.12.2011 05:00 9,5 C 85 % 1008,4 hPa 0,0 l/m 30,5 km/h W-SW 7,1 C -0,2 C 16,9 km/h
04.12.2011 06:00 9,9 C 85 % 1008,0 hPa 0,0 l/m 36,9 km/h W-SW 7,5 C -0,8 C 20,5 km/h
04.12.2011 07:00 10,3 C 84 % 1008,1 hPa 0,0 l/m 33,7 km/h W-SW 7,7 C 0,4 C 18,7 km/h
04.12.2011 08:00 10,4 C 84 % 1008,0 hPa 0,0 l/m 25,3 km/h W-SW 7,8 C 2,3 C 14,0 km/h
04.12.2011 09:00 10,8 C 84 % 1008,1 hPa 0,0 l/m 43,4 km/h W-SW 8,2 C -0,4 C 24,1 km/h
04.12.2011 10:00 11,5 C 83 % 1008,3 hPa 0,0 l/m 29,8 km/h W-SW 8,7 C 2,8 C 16,6 km/h
04.12.2011 11:00 12,3 C 81 % 1007,6 hPa 0,0 l/m 58,3 km/h W 9,1 C 0,6 C 32,4 km/h
04.12.2011 12:00 11,1 C 84 % 1007,4 hPa 0,0 l/m 33,7 km/h SW 8,5 C 1,5 C 18,7 km/h
04.12.2011 13:00 11,5 C 83 % 1007,0 hPa 0,0 l/m 25,9 km/h W-SW 8,7 C 3,7 C 14,4 km/h
04.12.2011 14:00 11,3 C 85 % 1006,3 hPa 0,4 l/m 29,2 km/h S-SW 8,9 C 2,6 C 16,2 km/h
04.12.2011 15:00 11,8 C 82 % 1005,6 hPa 0,0 l/m 52,5 km/h W 8,8 C 0,2 C 29,2 km/h
04.12.2011 16:00 11,6 C 83 % 1004,7 hPa 0,0 l/m 22,7 km/h SW 8,8 C 4,6 C 12,6 km/h
04.12.2011 17:00 12,1 C 80 % 1003,9 hPa 0,0 l/m 51,2 km/h SW 8,8 C 0,8 C 28,4 km/h
04.12.2011 18:00 12,1 C 80 % 1003,4 hPa 0,0 l/m 45,4 km/h SW 8,8 C 1,4 C 25,2 km/h
04.12.2011 19:00 11,9 C 82 % 1002,7 hPa 0,0 l/m 52,5 km/h W-SW 8,9 C 0,4 C 29,2 km/h
04.12.2011 20:00 10,7 C 86 % 1001,5 hPa 0,4 l/m 22,7 km/h W 8,5 C 3,4 C 12,6 km/h
04.12.2011 21:00 11,6 C 84 % 1000,1 hPa 0,0 l/m 19,4 km/h W 9,0 C 5,5 C 10,8 km/h
04.12.2011 22:00 12,4 C 80 % 998,8 hPa 0,0 l/m 27,9 km/h W-SW 9,0 C 4,4 C 15,5 km/h
04.12.2011 23:00 11,9 C 82 % 997,7 hPa 0,0 l/m 44,1 km/h SW 8,9 C 1,2 C 24,5 km/h
Min-Datum _ 29.11.11 01.12.11 04.12.11 - 28.11.11 - 29.11.11 03.12.11 28.11.11
_ Min-Zeit 06:30 14:30 23:30 - 00:30 - 06:30 16:30 00:30
Minimum _ -1,8 C 52 % 997,7 hPa - 0,0 km/h - -4,0 C -6,0 C 0,0 km/h
Max-Datum _ 01.12.11 28.11.11 28.11.11 02.12.11 04.12.11 - 01.12.11 01.12.11 04.12.11
_ Max-Zeit 12:30 03:30 01:30 18:30 11:30 - 10:30 12:30 11:30
Maximum _ 18,7 C 87 % 1027,2 hPa 0,7 l/m 58,3 km/h
W
- 9,9 C 18,7 C 32,4 km/h
W
Durchschnitt _ 7,5 C 80 % 1017,2 hPa #4,6 l/m 10,5 km/h W-SW 4,2 C 4,5 C 5,8 km/h
www.sexauwetter.de